Time;durP1;ratioP1;P1;durP2;ratioP2;P2;SDS_P1;SDS_P2;PMS_P1;PMS_P2;Temp;Humidity;BMP_temperature;BMP_pressure;BME280_temperature;BME280_humidity;BME280_pressure;Samples;Min_cycle;Max_cycle;Signal;HPM_P1;HPM_P2
2022/01/03 00:01:43;;;;;;;3.27;0.87;;;14.70;61.70;15.00;96486.00;;;;5044369;28;20215;-85
2022/01/03 00:04:12;;;;;;;1.23;0.90;;;14.70;62.10;15.00;96488.00;;;;5037608;28;21020;-85
2022/01/03 00:06:41;;;;;;;1.27;0.80;;;14.70;62.00;15.00;96488.00;;;;5038748;28;20200;-85
2022/01/03 00:09:09;;;;;;;1.37;0.97;;;14.70;61.80;15.00;96483.00;;;;5042474;28;20408;-85
2022/01/03 00:11:37;;;;;;;1.90;1.17;;;14.70;62.50;15.00;96484.00;;;;5036476;28;20203;-85
2022/01/03 00:14:04;;;;;;;4.47;1.37;;;14.70;62.30;15.00;96484.00;;;;5037969;28;21789;-85
2022/01/03 00:16:31;;;;;;;0.83;0.70;;;14.70;62.50;15.00;96485.00;;;;5036540;28;20188;-85
2022/01/03 00:18:58;;;;;;;1.23;0.87;;;14.70;62.30;15.00;96467.00;;;;5039534;28;20205;-85
2022/01/03 00:21:34;;;;;;;1.87;1.10;;;14.70;62.40;15.00;96463.00;;;;5037958;28;20799;-85
2022/01/03 00:24:08;;;;;;;0.80;0.80;;;14.70;62.40;15.00;96449.00;;;;5042273;28;20583;-85
2022/01/03 00:26:38;;;;;;;5.23;1.10;;;14.70;62.30;15.00;96456.00;;;;5040355;28;20729;-86
2022/01/03 00:29:13;;;;;;;1.53;1.13;;;14.70;62.80;15.00;96457.00;;;;5043881;28;20190;-85
2022/01/03 00:31:42;;;;;;;1.10;0.87;;;14.70;62.90;15.00;96450.00;;;;5045916;28;20204;-85
2022/01/03 00:34:12;;;;;;;1.43;0.83;;;14.70;63.00;15.00;96447.00;;;;5038897;28;20232;-85
2022/01/03 00:36:42;;;;;;;1.20;0.80;;;14.70;63.20;15.00;96450.00;;;;5036664;28;20201;-85
2022/01/03 00:39:11;;;;;;;1.57;0.90;;;14.70;63.30;15.00;96443.00;;;;5036912;28;20816;-86
2022/01/03 00:41:43;;;;;;;0.70;0.70;;;14.70;63.40;15.00;96449.00;;;;5041170;28;20213;-85
2022/01/03 00:44:11;;;;;;;4.37;0.80;;;14.70;63.20;15.00;96452.00;;;;5044382;28;20230;-85
2022/01/03 00:46:39;;;;;;;1.00;0.80;;;14.70;63.20;15.00;96448.00;;;;5040548;28;20228;-86
2022/01/03 00:49:07;;;;;;;0.70;0.70;;;14.70;63.60;15.00;96460.00;;;;5041035;28;20204;-85
2022/01/03 00:51:35;;;;;;;0.90;0.80;;;14.70;63.50;15.00;96461.00;;;;5041101;28;20200;-85
2022/01/03 00:54:02;;;;;;;2.40;1.00;;;14.70;63.60;15.00;96452.00;;;;5038585;28;20566;-85
2022/01/03 00:56:37;;;;;;;0.83;0.70;;;14.70;63.60;15.00;96461.00;;;;5042054;28;20204;-85
2022/01/03 00:59:09;;;;;;;1.40;1.00;;;14.70;63.50;15.00;96464.00;;;;5041177;28;20227;-85
2022/01/03 01:01:39;;;;;;;1.83;0.90;;;14.70;64.60;15.00;96456.00;;;;5043597;28;20205;-85
2022/01/03 01:04:09;;;;;;;1.07;0.97;;;14.70;64.20;15.00;96452.00;;;;5042649;28;20215;-85
2022/01/03 01:06:39;;;;;;;1.80;0.87;;;14.70;64.10;15.00;96444.00;;;;5043675;28;21897;-85
2022/01/03 01:09:09;;;;;;;1.87;0.87;;;14.70;64.30;15.00;96445.00;;;;5043695;28;20203;-85
2022/01/03 01:11:43;;;;;;;2.03;0.90;;;14.70;64.30;15.00;96450.00;;;;5043090;28;20912;-85
2022/01/03 01:14:13;;;;;;;1.87;1.00;;;14.80;64.00;15.00;96449.00;;;;5046314;28;21009;-85
2022/01/03 01:16:41;;;;;;;1.00;0.83;;;14.70;64.50;15.00;96445.00;;;;5045309;28;20208;-85
2022/01/03 01:19:10;;;;;;;1.27;0.90;;;14.70;64.70;15.00;96443.00;;;;5042177;28;20204;-85
2022/01/03 01:21:37;;;;;;;1.10;1.00;;;14.80;65.50;15.00;96440.00;;;;5043526;28;20741;-85
2022/01/03 01:24:05;;;;;;;1.23;0.90;;;14.70;64.60;15.10;96458.00;;;;5043292;28;20211;-85
2022/01/03 01:29:18;;;;;;;0.60;0.60;;;14.80;64.80;15.00;96434.00;;;;5044578;28;20203;-85
2022/01/03 01:31:48;;;;;;;0.90;0.77;;;14.80;65.00;15.00;96440.00;;;;5043456;28;20193;-85
2022/01/03 01:34:22;;;;;;;2.00;1.00;;;14.80;65.10;15.10;96448.00;;;;5041526;28;20226;-85
2022/01/03 01:36:54;;;;;;;1.10;1.00;;;14.80;65.20;15.00;96439.00;;;;5043500;28;20207;-85
2022/01/03 01:39:23;;;;;;;1.33;0.70;;;14.80;64.90;15.00;96443.00;;;;5042315;28;20205;-85
2022/01/03 01:41:57;;;;;;;3.10;0.70;;;14.80;65.10;15.00;96433.00;;;;5044746;28;20261;-86
2022/01/03 01:44:27;;;;;;;1.20;0.90;;;14.80;65.20;15.00;96431.00;;;;5040386;28;20227;-85
2022/01/03 01:46:58;;;;;;;0.83;0.77;;;14.80;65.20;15.00;96435.00;;;;5036740;28;20224;-85
2022/01/03 01:49:26;;;;;;;2.63;1.07;;;14.80;65.50;15.00;96439.00;;;;5040432;28;20224;-85
2022/01/03 01:51:59;;;;;;;0.87;0.87;;;14.80;65.70;15.00;96433.00;;;;5044363;28;20200;-85
2022/01/03 01:54:32;;;;;;;1.63;0.87;;;14.80;65.50;15.00;96439.00;;;;5043244;28;20212;-85
2022/01/03 01:57:18;;;;;;;1.73;0.80;;;14.80;65.60;15.10;96433.00;;;;5044128;28;20188;-85
2022/01/03 02:00:05;;;;;;;0.63;0.63;;;14.80;65.80;15.10;96425.00;;;;5043964;28;20246;-85
2022/01/03 02:02:37;;;;;;;1.47;0.60;;;14.90;66.00;15.10;96428.00;;;;5041212;28;20250;-86
2022/01/03 02:05:20;;;;;;;2.87;1.17;;;14.90;66.30;15.10;96423.00;;;;5040133;28;20734;-85
2022/01/03 02:08:12;;;;;;;1.50;0.60;;;14.90;66.10;15.20;96428.00;;;;5042850;28;20184;-85
2022/01/03 02:10:43;;;;;;;1.40;1.00;;;14.90;65.70;15.20;96434.00;;;;5040890;28;20193;-85
2022/01/03 02:13:12;;;;;;;3.80;0.90;;;14.90;65.90;15.20;96433.00;;;;5037619;28;20215;-85
2022/01/03 02:15:45;;;;;;;4.60;1.17;;;15.00;66.20;15.20;96441.00;;;;5035912;28;20280;-85
2022/01/03 02:18:13;;;;;;;1.93;1.30;;;15.00;66.10;15.20;96439.00;;;;5043630;28;20246;-85
2022/01/03 02:20:42;;;;;;;1.10;0.67;;;15.00;66.10;15.30;96436.00;;;;5042919;28;20228;-86
2022/01/03 02:23:09;;;;;;;1.77;0.87;;;15.00;66.30;15.30;96431.00;;;;5039755;28;20196;-85
2022/01/03 02:25:36;;;;;;;1.40;0.83;;;15.00;65.90;15.30;96435.00;;;;5039120;28;20313;-85
2022/01/03 02:28:04;;;;;;;3.07;0.77;;;15.10;65.80;15.30;96427.00;;;;5042060;28;20197;-85
2022/01/03 02:30:33;;;;;;;1.40;1.00;;;15.10;66.10;15.30;96415.00;;;;5038633;28;20200;-89
2022/01/03 02:33:01;;;;;;;3.00;0.97;;;15.10;66.20;15.30;96421.00;;;;5035195;28;20193;-88
2022/01/03 02:35:30;;;;;;;1.73;0.90;;;15.10;66.70;15.40;96433.00;;;;5042681;28;20284;-88
2022/01/03 02:37:58;;;;;;;0.97;0.73;;;15.10;66.20;15.40;96424.00;;;;5040668;28;20220;-88
2022/01/03 02:40:25;;;;;;;1.70;0.67;;;15.10;66.00;15.40;96420.00;;;;5037889;28;20192;-88
2022/01/03 02:42:53;;;;;;;1.60;0.70;;;15.20;66.00;15.40;96413.00;;;;5040430;28;20188;-88
2022/01/03 02:45:23;;;;;;;2.27;0.77;;;15.20;66.30;15.40;96421.00;;;;5043877;28;20236;-85
2022/01/03 02:47:52;;;;;;;1.30;0.60;;;15.20;67.00;15.40;96433.00;;;;5042995;28;20188;-88
2022/01/03 02:50:21;;;;;;;2.50;1.03;;;15.30;66.30;15.40;96443.00;;;;5041635;28;20868;-85
2022/01/03 02:52:50;;;;;;;4.20;0.77;;;15.20;66.20;15.40;96427.00;;;;5035887;28;20204;-88
2022/01/03 02:55:19;;;;;;;1.73;0.90;;;15.20;66.10;15.40;96425.00;;;;5041174;28;20222;-85
2022/01/03 02:57:50;;;;;;;3.47;0.73;;;15.20;66.10;15.40;96432.00;;;;5044044;28;20212;-86
2022/01/03 03:00:20;;;;;;;2.53;0.77;;;15.20;66.00;15.40;96440.00;;;;5039502;28;20197;-89
2022/01/03 03:02:48;;;;;;;1.70;0.60;;;15.20;66.30;15.50;96439.00;;;;5044276;28;20234;-88
2022/01/03 03:05:16;;;;;;;0.70;0.70;;;15.30;66.30;15.50;96432.00;;;;5045467;28;20232;-88
2022/01/03 03:07:45;;;;;;;2.73;0.80;;;15.20;65.60;15.40;96416.00;;;;5045005;28;20656;-85
2022/01/03 03:10:15;;;;;;;1.00;0.60;;;15.20;66.10;15.40;96421.00;;;;5035616;28;20223;-84
2022/01/03 03:12:45;;;;;;;2.43;0.77;;;15.30;66.10;15.40;96423.00;;;;5042440;28;20200;-85
2022/01/03 03:15:15;;;;;;;2.03;0.80;;;15.20;65.80;15.40;96427.00;;;;5041048;28;20220;-85
2022/01/03 03:17:45;;;;;;;1.13;0.50;;;15.30;66.10;15.40;96412.00;;;;5044772;28;20197;-88
2022/01/03 03:20:15;;;;;;;1.50;0.77;;;15.20;66.00;15.40;96403.00;;;;5042418;28;20200;-88
2022/01/03 03:22:43;;;;;;;3.13;0.70;;;15.20;66.20;15.40;96410.00;;;;5041058;28;20211;-85
2022/01/03 03:25:14;;;;;;;2.73;1.00;;;15.20;66.40;15.50;96416.00;;;;5049255;28;20224;-85
2022/01/03 03:27:46;;;;;;;3.57;0.80;;;15.20;67.00;15.40;96414.00;;;;5036353;28;20998;-86
2022/01/03 03:30:16;;;;;;;1.00;0.80;;;15.20;66.20;15.40;96421.00;;;;5040296;28;20200;-85
2022/01/03 03:32:45;;;;;;;2.70;1.07;;;15.20;66.00;15.40;96416.00;;;;5036240;28;20242;-84
2022/01/03 03:35:13;;;;;;;4.70;1.13;;;15.20;66.00;15.40;96431.00;;;;5040800;28;20255;-85
2022/01/03 03:37:40;;;;;;;1.63;0.67;;;15.20;66.30;15.40;96444.00;;;;5044620;28;20207;-85
2022/01/03 03:40:09;;;;;;;1.93;0.80;;;15.10;66.50;15.40;96448.00;;;;5041385;28;20196;-88
2022/01/03 03:42:36;;;;;;;5.67;0.70;;;15.20;66.40;15.40;96455.00;;;;5044459;28;20196;-89
2022/01/03 03:45:06;;;;;;;3.07;0.80;;;15.20;66.40;15.40;96453.00;;;;5036204;28;20694;-88
2022/01/03 03:47:33;;;;;;;0.50;0.37;;;15.20;66.30;15.40;96472.00;;;;5037865;28;20223;-88
2022/01/03 03:50:01;;;;;;;2.93;0.90;;;15.20;66.60;15.40;96465.00;;;;5039166;28;20660;-89
2022/01/03 03:52:28;;;;;;;2.50;0.80;;;15.20;66.50;15.40;96451.00;;;;5040407;28;20188;-84
2022/01/03 03:54:55;;;;;;;2.57;0.60;;;15.20;66.50;15.40;96458.00;;;;5042344;28;20211;-86
2022/01/03 03:57:22;;;;;;;3.10;0.60;;;15.20;66.20;15.40;96456.00;;;;5037576;28;20204;-88
2022/01/03 03:59:50;;;;;;;1.40;0.63;;;15.20;66.60;15.40;96459.00;;;;5040103;28;21168;-88
2022/01/03 04:02:18;;;;;;;0.77;0.60;;;15.20;66.90;15.40;96452.00;;;;5038838;28;20204;-88
2022/01/03 04:04:45;;;;;;;1.63;0.70;;;15.20;66.80;15.40;96446.00;;;;5035957;28;20225;-85
2022/01/03 04:07:12;;;;;;;1.90;0.60;;;15.20;66.90;15.40;96459.00;;;;5034315;28;20234;-86
2022/01/03 04:09:39;;;;;;;2.07;0.80;;;15.20;66.80;15.40;96466.00;;;;5039032;28;20199;-85
2022/01/03 04:12:07;;;;;;;1.30;0.60;;;15.10;66.30;15.40;96461.00;;;;5034543;28;20207;-88
2022/01/03 04:14:34;;;;;;;2.17;0.83;;;15.20;66.80;15.40;96465.00;;;;5041171;28;20220;-88
2022/01/03 04:17:01;;;;;;;0.60;0.47;;;15.20;66.70;15.40;96468.00;;;;5039283;28;20196;-85
2022/01/03 04:19:30;;;;;;;2.40;0.93;;;15.20;66.70;15.40;96464.00;;;;5041587;28;20201;-89
2022/01/03 04:21:57;;;;;;;1.30;0.80;;;15.10;66.70;15.40;96464.00;;;;5040753;28;20765;-85
2022/01/03 04:24:24;;;;;;;3.53;1.00;;;15.20;67.00;15.40;96466.00;;;;5036237;28;20899;-85
2022/01/03 04:26:51;;;;;;;2.40;0.67;;;15.20;66.60;15.40;96466.00;;;;5042242;28;20220;-85
2022/01/03 04:29:18;;;;;;;4.10;0.90;;;15.20;67.80;15.40;96469.00;;;;5041663;28;20857;-85
2022/01/03 04:31:45;;;;;;;1.97;0.83;;;15.20;67.10;15.40;96464.00;;;;5042604;28;20205;-85
2022/01/03 04:34:13;;;;;;;1.93;0.57;;;15.20;67.20;15.40;96467.00;;;;5040611;28;20465;-85
2022/01/03 04:36:42;;;;;;;2.67;0.83;;;15.20;67.10;15.40;96474.00;;;;5040829;28;20276;-86
2022/01/03 04:39:10;;;;;;;2.70;0.90;;;15.20;67.00;15.40;96474.00;;;;5039061;28;20980;-85
2022/01/03 04:41:37;;;;;;;1.10;0.60;;;15.20;67.20;15.40;96471.00;;;;5037043;28;20295;-85
2022/01/03 04:44:06;;;;;;;2.17;0.80;;;15.10;67.10;15.40;96471.00;;;;5035409;28;20216;-85
2022/01/03 04:46:34;;;;;;;1.17;0.83;;;15.10;67.20;15.30;96472.00;;;;5038189;28;20260;-85
2022/01/03 04:49:03;;;;;;;1.67;0.80;;;15.10;67.20;15.30;96472.00;;;;5041034;28;20193;-85
2022/01/03 04:51:34;;;;;;;1.50;0.70;;;15.10;67.10;15.30;96476.00;;;;5037816;28;20196;-85
2022/01/03 04:54:03;;;;;;;2.30;0.83;;;15.10;67.20;15.30;96476.00;;;;5036767;28;20230;-85
2022/01/03 04:56:30;;;;;;;0.83;0.67;;;15.10;67.20;15.30;96484.00;;;;5039922;28;20665;-85
2022/01/03 04:58:58;;;;;;;1.90;0.90;;;15.10;67.30;15.30;96473.00;;;;5040133;28;20195;-85
2022/01/03 05:01:25;;;;;;;2.60;0.70;;;15.10;67.60;15.30;96484.00;;;;5041515;28;20189;-85
2022/01/03 05:03:53;;;;;;;5.63;0.60;;;15.10;67.30;15.30;96476.00;;;;5038576;28;20892;-86
2022/01/03 05:06:20;;;;;;;1.20;0.63;;;15.00;67.50;15.20;96480.00;;;;5039551;28;20945;-85
2022/01/03 05:08:48;;;;;;;2.60;1.03;;;15.00;67.30;15.20;96485.00;;;;5039097;28;20771;-85
2022/01/03 05:11:16;;;;;;;1.53;0.90;;;15.00;67.50;15.20;96479.00;;;;5034456;28;21029;-85
2022/01/03 05:13:44;;;;;;;2.83;0.87;;;15.00;67.40;15.20;96478.00;;;;5038452;28;20228;-85
2022/01/03 05:16:11;;;;;;;2.70;0.70;;;15.00;67.40;15.20;96477.00;;;;5038621;28;20212;-85
2022/01/03 05:18:38;;;;;;;1.53;0.60;;;15.00;67.70;15.20;96488.00;;;;5032657;28;20687;-85
2022/01/03 05:21:05;;;;;;;1.47;0.63;;;15.00;67.60;15.20;96490.00;;;;5040955;28;20188;-85
2022/01/03 05:23:33;;;;;;;2.13;0.90;;;15.00;67.70;15.20;96500.00;;;;5043854;28;20220;-85
2022/01/03 05:26:00;;;;;;;3.33;0.80;;;15.00;67.70;15.20;96501.00;;;;5036380;28;20192;-85
2022/01/03 05:28:28;;;;;;;2.33;0.77;;;14.90;67.50;15.20;96503.00;;;;5040960;28;20213;-85
2022/01/03 05:30:55;;;;;;;1.20;0.77;;;15.00;67.60;15.10;96506.00;;;;5034222;28;20189;-85
2022/01/03 05:33:22;;;;;;;2.33;1.00;;;14.90;67.70;15.10;96511.00;;;;5043834;28;20217;-85
2022/01/03 05:35:49;;;;;;;1.57;0.90;;;14.90;67.90;15.10;96516.00;;;;5037207;28;20184;-85
2022/01/03 05:38:17;;;;;;;1.00;0.67;;;14.90;67.70;15.10;96504.00;;;;5040923;28;20197;-85
2022/01/03 05:40:43;;;;;;;2.10;0.97;;;14.90;67.80;15.10;96509.00;;;;5035290;28;20291;-85
2022/01/03 05:43:11;;;;;;;0.80;0.60;;;14.80;67.80;15.00;96511.00;;;;5035927;28;20919;-85
2022/01/03 05:45:40;;;;;;;1.97;0.70;;;14.90;68.10;15.00;96506.00;;;;5040175;28;20204;-85
2022/01/03 05:48:07;;;;;;;4.50;0.90;;;14.80;68.00;15.00;96510.00;;;;5039864;28;20232;-85
2022/01/03 05:50:34;;;;;;;5.37;1.10;;;14.80;68.10;15.00;96508.00;;;;5035880;28;20201;-85
2022/01/03 05:53:01;;;;;;;3.20;0.90;;;14.80;68.10;15.00;96510.00;;;;5041217;28;20195;-85
2022/01/03 05:55:28;;;;;;;1.13;0.53;;;14.80;68.30;14.90;96504.00;;;;5039215;28;20212;-85
2022/01/03 05:57:56;;;;;;;1.53;0.70;;;14.70;68.30;14.90;96510.00;;;;5043419;28;20203;-85
2022/01/03 06:00:25;;;;;;;2.93;0.70;;;14.70;68.60;14.90;96512.00;;;;5044223;28;20201;-85
2022/01/03 06:02:56;;;;;;;6.13;0.67;;;14.70;68.20;14.90;96503.00;;;;5040284;28;20199;-85
2022/01/03 06:05:41;;;;;;;2.40;0.77;;;14.70;68.30;14.90;96502.00;;;;5040039;28;20577;-85
2022/01/03 06:08:09;;;;;;;3.70;0.70;;;14.70;68.40;14.90;96504.00;;;;5041410;28;20230;-85
2022/01/03 06:10:41;;;;;;;1.70;0.83;;;14.60;68.40;14.90;96504.00;;;;5039997;28;20201;-85
2022/01/03 06:13:08;;;;;;;1.17;0.50;;;14.70;68.30;14.90;96511.00;;;;5041271;28;20936;-85
2022/01/03 06:15:38;;;;;;;1.30;0.67;;;14.60;68.40;14.80;96514.00;;;;5041669;28;20877;-85
2022/01/03 06:18:10;;;;;;;2.33;0.80;;;14.60;68.50;14.80;96513.00;;;;5040740;28;20276;-85
2022/01/03 06:20:38;;;;;;;3.20;1.00;;;14.60;68.60;14.80;96513.00;;;;5047642;28;20275;-86
2022/01/03 06:23:06;;;;;;;3.17;0.90;;;14.60;68.70;14.80;96504.00;;;;5050139;28;20197;-85
2022/01/03 06:25:33;;;;;;;3.80;0.87;;;14.60;68.70;14.80;96497.00;;;;5048200;28;20557;-85
2022/01/03 06:28:00;;;;;;;1.17;0.60;;;14.60;68.80;14.80;96503.00;;;;5061671;28;20436;-85
2022/01/03 06:30:27;;;;;;;1.27;1.00;;;14.50;69.30;14.80;96506.00;;;;5071087;28;20243;-85
2022/01/03 06:32:54;;;;;;;2.33;0.80;;;14.50;68.70;14.80;96503.00;;;;5062025;28;20961;-85
2022/01/03 06:35:23;;;;;;;2.47;0.60;;;14.50;68.60;14.70;96498.00;;;;5043691;28;20235;-85
2022/01/03 06:37:50;;;;;;;2.47;0.80;;;14.50;68.70;14.70;96501.00;;;;5041015;28;20209;-85
2022/01/03 06:40:17;;;;;;;3.27;0.87;;;14.50;68.70;14.70;96506.00;;;;5035059;28;20208;-85
2022/01/03 06:42:44;;;;;;;3.00;0.70;;;14.50;68.80;14.70;96509.00;;;;5038895;28;20465;-85
2022/01/03 06:45:11;;;;;;;1.53;0.70;;;14.50;68.90;14.70;96502.00;;;;5042515;28;20223;-85
2022/01/03 06:47:39;;;;;;;2.73;0.73;;;14.40;68.80;14.70;96502.00;;;;5043148;28;20220;-85
2022/01/03 06:50:07;;;;;;;1.03;0.60;;;14.40;68.70;14.70;96507.00;;;;5040312;28;20197;-85
2022/01/03 06:52:36;;;;;;;1.60;0.70;;;14.40;68.90;14.70;96508.00;;;;5038780;28;20907;-85
2022/01/03 06:55:05;;;;;;;1.57;0.70;;;14.40;68.80;14.70;96514.00;;;;5039578;28;20225;-85
2022/01/03 06:57:33;;;;;;;2.00;0.70;;;14.40;69.10;14.70;96512.00;;;;5040542;28;20673;-86
2022/01/03 07:00:00;;;;;;;4.07;0.93;;;14.40;69.00;14.70;96519.00;;;;5036535;28;20196;-85
2022/01/03 07:02:27;;;;;;;4.03;0.93;;;14.40;69.20;14.70;96518.00;;;;5039210;28;20417;-85
2022/01/03 07:04:55;;;;;;;1.97;0.60;;;14.40;69.30;14.60;96514.00;;;;5035355;28;20254;-85
2022/01/03 07:07:22;;;;;;;3.73;0.70;;;14.40;69.20;14.70;96525.00;;;;5036998;28;20235;-85
2022/01/03 07:09:51;;;;;;;1.83;0.80;;;14.40;69.20;14.60;96518.00;;;;5039826;28;20231;-85
2022/01/03 07:12:18;;;;;;;2.83;0.70;;;14.40;69.10;14.60;96516.00;;;;5035831;28;20201;-85
2022/01/03 07:20:14;;;;;;;1.30;0.73;;;14.30;69.20;14.60;96515.00;;;;5035989;28;20235;-85
2022/01/03 07:22:41;;;;;;;1.30;0.63;;;14.30;69.10;14.60;96526.00;;;;5039767;28;20220;-85
2022/01/03 07:25:11;;;;;;;2.87;0.70;;;14.30;69.10;14.60;96515.00;;;;5040182;28;20227;-85
2022/01/03 07:27:38;;;;;;;6.20;1.00;;;14.30;69.10;14.60;96518.00;;;;5035401;28;20239;-85
2022/01/03 07:30:07;;;;;;;1.90;0.70;;;14.40;69.20;14.60;96511.00;;;;5035993;28;20200;-85
2022/01/03 07:32:34;;;;;;;2.07;1.13;;;14.40;69.10;14.60;96522.00;;;;5033477;28;20193;-85
2022/01/03 07:35:02;;;;;;;1.70;0.70;;;14.40;69.10;14.70;96524.00;;;;5033963;28;20219;-85
2022/01/03 07:37:29;;;;;;;2.67;0.80;;;14.40;69.20;14.70;96522.00;;;;5038294;28;20302;-85
2022/01/03 07:39:56;;;;;;;3.03;0.77;;;14.40;69.30;14.70;96526.00;;;;5035582;28;20192;-85
2022/01/03 07:42:24;;;;;;;3.87;0.87;;;14.40;69.30;14.70;96522.00;;;;5045455;28;20208;-85
2022/01/03 07:44:51;;;;;;;2.50;0.90;;;14.40;69.40;14.70;96530.00;;;;5034876;28;20218;-84
2022/01/03 07:47:19;;;;;;;8.37;1.80;;;14.40;69.10;14.70;96527.00;;;;5036879;28;20234;-84
2022/01/03 07:49:46;;;;;;;3.43;1.77;;;14.40;69.20;14.80;96517.00;;;;5039652;28;20216;-83
2022/01/03 07:52:13;;;;;;;3.50;3.20;;;14.40;69.10;14.80;96522.00;;;;5060016;28;20661;-83
2022/01/03 07:54:40;;;;;;;1.83;1.63;;;14.50;69.30;14.80;96532.00;;;;5045862;28;20228;-83
2022/01/03 07:57:08;;;;;;;3.27;1.27;;;14.50;69.40;14.90;96535.00;;;;5029650;28;20185;-83
2022/01/03 07:59:36;;;;;;;2.50;1.10;;;14.50;69.30;14.90;96530.00;;;;5039463;28;20192;-83
2022/01/03 08:02:03;;;;;;;1.23;0.60;;;14.50;69.20;14.90;96532.00;;;;5072101;28;20222;-83
2022/01/03 08:04:31;;;;;;;1.40;0.70;;;14.50;69.30;15.00;96523.00;;;;5056360;28;20225;-83
2022/01/03 08:06:58;;;;;;;1.17;0.50;;;14.60;69.10;15.00;96521.00;;;;5054320;28;20720;-83
2022/01/03 08:09:25;;;;;;;1.90;0.80;;;14.60;69.30;15.00;96528.00;;;;5046850;28;20227;-84
2022/01/03 08:11:52;;;;;;;1.50;0.57;;;14.60;69.10;15.00;96526.00;;;;5038905;28;20197;-83
2022/01/03 08:14:19;;;;;;;1.97;0.90;;;14.60;69.30;15.00;96521.00;;;;5051736;28;20709;-84
2022/01/03 08:16:48;;;;;;;1.63;0.73;;;14.60;69.30;15.00;96528.00;;;;5060397;28;20196;-83
2022/01/03 08:19:15;;;;;;;3.57;0.90;;;14.70;69.20;15.00;96522.00;;;;5052337;28;20203;-83
2022/01/03 08:21:42;;;;;;;1.73;0.70;;;14.70;69.10;15.00;96524.00;;;;5057650;28;20197;-83
2022/01/03 08:24:11;;;;;;;1.57;0.53;;;14.70;69.30;15.10;96529.00;;;;5062346;23;20547;-91
2022/01/03 08:26:39;;;;;;;2.23;0.90;;;14.70;69.10;15.10;96526.00;;;;5073566;28;20204;-91
2022/01/03 08:29:06;;;;;;;2.83;1.00;;;14.70;69.10;15.10;96513.00;;;;5073597;28;20255;-91
2022/01/03 08:31:33;;;;;;;4.53;1.10;;;15.30;69.20;15.20;96524.00;;;;5073526;28;20258;-91
2022/01/03 08:34:02;;;;;;;2.27;0.80;;;14.70;68.70;15.10;96518.00;;;;5062312;28;20225;-92
2022/01/03 08:36:29;;;;;;;1.60;0.90;;;15.80;69.40;15.10;96513.00;;;;5044067;28;20255;-91
2022/01/03 08:38:57;;;;;;;3.20;0.70;;;16.00;69.50;15.10;96521.00;;;;5049632;28;20614;-90
2022/01/03 08:41:25;;;;;;;2.90;1.00;;;14.70;68.50;15.20;96521.00;;;;5042791;28;20241;-90
2022/01/03 08:43:54;;;;;;;1.60;0.80;;;14.80;68.50;15.20;96523.00;;;;5045492;28;20221;-91
2022/01/03 08:46:23;;;;;;;3.43;1.10;;;14.80;68.70;15.20;96524.00;;;;5052676;28;20282;-91
2022/01/03 08:48:51;;;;;;;3.07;0.90;;;14.80;68.70;15.20;96526.00;;;;5053239;28;20216;-92
2022/01/03 08:51:19;;;;;;;2.30;1.00;;;14.80;68.90;15.30;96525.00;;;;5053756;28;20200;-93
2022/01/03 08:53:47;;;;;;;1.97;0.83;;;16.40;69.60;15.20;96518.00;;;;5052473;28;20225;-93
2022/01/03 08:56:15;;;;;;;2.97;1.03;;;14.90;68.90;15.30;96515.00;;;;5045138;28;20644;-91
2022/01/03 08:58:42;;;;;;;3.43;0.90;;;15.00;68.80;15.30;96524.00;;;;5033500;28;20667;-92
2022/01/03 09:01:09;;;;;;;2.10;0.80;;;14.90;68.80;15.40;96524.00;;;;5032813;28;20221;-92
2022/01/03 09:03:37;;;;;;;3.87;1.80;;;14.90;68.70;15.40;96516.00;;;;5038558;28;20665;-92
2022/01/03 09:06:04;;;;;;;4.30;1.63;;;15.50;69.10;15.40;96521.00;;;;5041559;28;20233;-91
2022/01/03 09:08:33;;;;;;;1.90;1.17;;;15.00;68.60;15.40;96521.00;;;;5045369;28;20282;-92
2022/01/03 09:11:00;;;;;;;2.13;0.80;;;15.00;68.50;15.40;96530.00;;;;5052518;28;20622;-92
2022/01/03 09:13:28;;;;;;;4.93;0.83;;;15.00;68.50;15.40;96513.00;;;;5051920;28;20211;-92
2022/01/03 09:15:56;;;;;;;6.80;1.20;;;15.20;68.50;15.40;96514.00;;;;5052446;28;20205;-93
2022/01/03 09:18:26;;;;;;;3.00;0.97;;;15.00;68.30;15.40;96519.00;;;;5053626;28;20213;-92
2022/01/03 09:20:53;;;;;;;2.57;1.27;;;15.00;68.30;15.40;96532.00;;;;5055970;28;20232;-93
2022/01/03 09:23:25;;;;;;;3.63;2.13;;;16.60;69.30;15.40;96524.00;;;;5055592;28;20275;-92
2022/01/03 09:28:52;;;;;;;2.60;1.47;;;15.10;68.90;15.50;96535.00;;;;5054014;28;20228;-92
2022/01/03 09:31:25;;;;;;;4.43;1.67;;;14.90;68.30;15.50;96531.00;;;;5047227;28;20192;-93
2022/01/03 09:33:54;;;;;;;2.70;0.80;;;15.10;68.50;15.50;96517.00;;;;5054306;28;20232;-92
2022/01/03 09:36:22;;;;;;;2.63;1.10;;;15.20;68.30;15.60;96532.00;;;;5058771;28;20197;-92
2022/01/03 09:38:50;;;;;;;3.10;0.90;;;15.20;68.20;15.60;96512.00;;;;5055687;28;20251;-92
2022/01/03 09:41:22;;;;;;;1.60;0.77;;;15.20;68.10;15.60;96508.00;;;;5053018;28;20270;-92
2022/01/03 09:43:54;;;;;;;2.83;1.27;;;15.10;68.10;15.70;96524.00;;;;5055796;28;20239;-93
2022/01/03 09:46:27;;;;;;;2.33;0.87;;;15.30;68.30;15.70;96514.00;;;;5053193;28;20697;-92
2022/01/03 09:48:56;;;;;;;2.60;0.90;;;15.30;68.50;15.80;96511.00;;;;5056023;28;20643;-94
2022/01/03 09:51:27;;;;;;;1.53;1.03;;;16.80;69.10;15.80;96517.00;;;;5053678;28;20196;-94
2022/01/03 09:53:58;;;;;;;2.00;0.90;;;16.80;68.70;15.80;96515.00;;;;5055240;28;20216;-92
2022/01/03 09:56:29;;;;;;;1.50;1.20;;;15.40;68.10;15.80;96517.00;;;;5050126;28;20292;-93
2022/01/03 09:59:00;;;;;;;6.47;1.47;;;15.40;68.80;15.90;96519.00;;;;5041503;28;20234;-93
2022/01/03 10:01:28;;;;;;;2.77;1.30;;;14.90;67.60;16.00;96513.00;;;;5044734;28;20284;-93
2022/01/03 10:03:55;;;;;;;3.33;1.00;;;15.50;68.00;16.00;96508.00;;;;5054593;28;20264;-92
2022/01/03 10:06:23;;;;;;;6.93;1.40;;;15.50;67.70;16.00;96520.00;;;;5053694;28;20635;-94
2022/01/03 10:08:54;;;;;;;3.27;1.03;;;15.50;67.90;16.10;96510.00;;;;5048406;28;20702;-92
2022/01/03 10:11:23;;;;;;;5.93;1.03;;;15.60;67.20;16.10;96505.00;;;;5046183;28;20255;-92
2022/01/03 10:13:53;;;;;;;3.27;0.70;;;15.60;67.60;16.10;96501.00;;;;5053667;28;20295;-92
2022/01/03 10:16:21;;;;;;;4.27;1.00;;;16.70;68.10;16.20;96500.00;;;;5058094;28;20682;-92
2022/01/03 10:18:49;;;;;;;3.77;0.80;;;16.60;66.70;16.20;96486.00;;;;5053700;28;20304;-92
2022/01/03 10:21:38;;;;;;;1.67;0.80;;;15.70;67.30;16.20;96494.00;;;;5049432;28;20242;-92
2022/01/03 10:24:07;;;;;;;1.10;0.70;;;15.80;65.50;16.30;96510.00;;;;5050675;28;20286;-92
2022/01/03 10:26:36;;;;;;;1.00;0.67;;;15.20;66.30;16.30;96499.00;;;;5053630;28;20204;-92
2022/01/03 10:29:20;;;;;;;1.30;0.60;;;15.80;66.50;16.30;96494.00;;;;5053690;28;20221;-92
2022/01/03 10:34:19;;;;;;;4.47;1.00;;;15.90;66.80;16.40;96494.00;;;;5024447;28;20202;-83
2022/01/03 10:36:49;;;;;;;1.60;0.50;;;16.00;66.80;16.40;96500.00;;;;5020713;28;20661;-84
2022/01/03 10:39:19;;;;;;;2.60;0.80;;;16.00;65.90;16.50;96497.00;;;;5031221;28;20260;-82
2022/01/03 10:41:49;;;;;;;5.70;1.10;;;16.00;66.00;16.50;96494.00;;;;5013975;28;20870;-83
2022/01/03 10:44:36;;;;;;;2.17;0.80;;;16.00;66.30;16.50;96500.00;;;;5021978;28;20209;-82
2022/01/03 10:47:07;;;;;;;1.07;0.60;;;16.10;66.20;16.50;96502.00;;;;5034409;28;20189;-82
2022/01/03 10:49:38;;;;;;;2.53;0.60;;;16.10;66.10;16.60;96494.00;;;;5034255;28;20217;-82
2022/01/03 10:52:19;;;;;;;1.77;0.80;;;16.10;66.20;16.60;96492.00;;;;5034090;28;20185;-81
2022/01/03 10:55:12;;;;;;;2.60;0.70;;;16.20;65.30;16.60;96494.00;;;;5034674;28;20221;-81
2022/01/03 10:57:54;;;;;;;3.13;0.73;;;16.20;65.10;16.60;96491.00;;;;5030157;28;20262;-83
2022/01/03 11:00:29;;;;;;;4.83;0.90;;;16.20;65.40;16.60;96485.00;;;;5024678;28;20271;-82
2022/01/03 11:03:17;;;;;;;1.10;0.63;;;16.20;65.90;16.70;96490.00;;;;5034695;28;20287;-82
2022/01/03 11:05:50;;;;;;;1.57;0.63;;;16.30;65.80;16.70;96478.00;;;;5034104;28;20231;-82
2022/01/03 11:11:09;;;;;;;3.23;0.60;;;16.30;66.10;16.80;96488.00;;;;5014108;28;20225;-83
2022/01/03 11:13:41;;;;;;;1.90;0.57;;;16.40;65.80;16.80;96466.00;;;;5019746;28;20202;-83
2022/01/03 11:16:11;;;;;;;1.20;0.70;;;16.40;65.70;16.80;96471.00;;;;5014233;28;20182;-82
2022/01/03 11:18:45;;;;;;;3.90;0.90;;;16.40;64.40;16.80;96463.00;;;;5014718;28;20182;-83
2022/01/03 11:21:17;;;;;;;0.70;0.57;;;16.40;64.60;16.80;96464.00;;;;5033742;28;20221;-83